sensor_id;sensor_type;location;lat;lon;timestamp;P1;durP1;ratioP1;P2;durP2;ratioP2
4553;SDS011;2289;48.316;15.174;2023-05-07T00:00:04;4.00;;;2.07;;
4553;SDS011;2289;48.316;15.174;2023-05-07T00:02:37;6.00;;;2.37;;
4553;SDS011;2289;48.316;15.174;2023-05-07T00:05:06;6.40;;;2.00;;
4553;SDS011;2289;48.316;15.174;2023-05-07T00:07:36;3.20;;;1.30;;
4553;SDS011;2289;48.316;15.174;2023-05-07T00:10:06;1.40;;;1.30;;
4553;SDS011;2289;48.316;15.174;2023-05-07T00:12:36;1.93;;;1.70;;
4553;SDS011;2289;48.316;15.174;2023-05-07T00:15:05;1.43;;;1.20;;
4553;SDS011;2289;48.316;15.174;2023-05-07T00:17:37;1.60;;;1.50;;
4553;SDS011;2289;48.316;15.174;2023-05-07T00:20:06;6.10;;;1.73;;
4553;SDS011;2289;48.316;15.174;2023-05-07T00:22:35;1.67;;;1.47;;
4553;SDS011;2289;48.316;15.174;2023-05-07T00:25:04;2.60;;;1.70;;
4553;SDS011;2289;48.316;15.174;2023-05-07T00:27:34;1.53;;;1.43;;
4553;SDS011;2289;48.316;15.174;2023-05-07T00:30:03;1.97;;;1.80;;
4553;SDS011;2289;48.316;15.174;2023-05-07T00:32:33;2.00;;;1.60;;
4553;SDS011;2289;48.316;15.174;2023-05-07T00:35:05;1.77;;;1.67;;
4553;SDS011;2289;48.316;15.174;2023-05-07T00:37:35;3.00;;;1.83;;
4553;SDS011;2289;48.316;15.174;2023-05-07T00:40:04;1.70;;;1.60;;
4553;SDS011;2289;48.316;15.174;2023-05-07T00:42:35;1.93;;;1.77;;
4553;SDS011;2289;48.316;15.174;2023-05-07T00:45:05;2.13;;;1.70;;
4553;SDS011;2289;48.316;15.174;2023-05-07T00:47:35;1.70;;;1.60;;
4553;SDS011;2289;48.316;15.174;2023-05-07T00:50:06;3.30;;;2.03;;
4553;SDS011;2289;48.316;15.174;2023-05-07T00:52:37;8.00;;;1.70;;
4553;SDS011;2289;48.316;15.174;2023-05-07T00:55:06;3.30;;;2.27;;
4553;SDS011;2289;48.316;15.174;2023-05-07T00:57:36;8.90;;;2.77;;
4553;SDS011;2289;48.316;15.174;2023-05-07T01:00:06;4.23;;;2.20;;
4553;SDS011;2289;48.316;15.174;2023-05-07T01:02:39;4.50;;;1.77;;
4553;SDS011;2289;48.316;15.174;2023-05-07T01:05:10;1.67;;;1.57;;
4553;SDS011;2289;48.316;15.174;2023-05-07T01:07:41;1.73;;;1.63;;
4553;SDS011;2289;48.316;15.174;2023-05-07T01:10:11;2.60;;;1.83;;
4553;SDS011;2289;48.316;15.174;2023-05-07T01:12:40;2.93;;;2.30;;
4553;SDS011;2289;48.316;15.174;2023-05-07T01:15:10;5.70;;;2.07;;
4553;SDS011;2289;48.316;15.174;2023-05-07T01:17:39;7.57;;;2.50;;
4553;SDS011;2289;48.316;15.174;2023-05-07T01:20:11;3.13;;;1.93;;
4553;SDS011;2289;48.316;15.174;2023-05-07T01:22:42;1.90;;;1.80;;
4553;SDS011;2289;48.316;15.174;2023-05-07T01:25:11;2.00;;;1.80;;
4553;SDS011;2289;48.316;15.174;2023-05-07T01:27:40;4.43;;;1.70;;
4553;SDS011;2289;48.316;15.174;2023-05-07T01:30:09;1.63;;;1.53;;
4553;SDS011;2289;48.316;15.174;2023-05-07T01:32:41;3.00;;;1.30;;
4553;SDS011;2289;48.316;15.174;2023-05-07T01:35:13;1.97;;;1.60;;
4553;SDS011;2289;48.316;15.174;2023-05-07T01:37:46;2.70;;;1.40;;
4553;SDS011;2289;48.316;15.174;2023-05-07T01:40:15;3.70;;;1.90;;
4553;SDS011;2289;48.316;15.174;2023-05-07T01:42:44;2.47;;;1.97;;
4553;SDS011;2289;48.316;15.174;2023-05-07T01:45:15;5.47;;;2.10;;
4553;SDS011;2289;48.316;15.174;2023-05-07T01:47:44;1.73;;;1.40;;
4553;SDS011;2289;48.316;15.174;2023-05-07T01:50:13;1.90;;;1.80;;
4553;SDS011;2289;48.316;15.174;2023-05-07T01:52:44;3.30;;;1.60;;
4553;SDS011;2289;48.316;15.174;2023-05-07T01:55:14;1.60;;;1.30;;
4553;SDS011;2289;48.316;15.174;2023-05-07T01:57:43;3.23;;;1.80;;
4553;SDS011;2289;48.316;15.174;2023-05-07T02:00:12;1.60;;;1.50;;
4553;SDS011;2289;48.316;15.174;2023-05-07T02:02:40;1.37;;;1.27;;
4553;SDS011;2289;48.316;15.174;2023-05-07T02:05:09;3.33;;;1.90;;
4553;SDS011;2289;48.316;15.174;2023-05-07T02:07:38;2.30;;;2.10;;
4553;SDS011;2289;48.316;15.174;2023-05-07T02:10:07;1.90;;;1.70;;
4553;SDS011;2289;48.316;15.174;2023-05-07T02:12:39;1.50;;;1.40;;
4553;SDS011;2289;48.316;15.174;2023-05-07T02:15:08;2.83;;;2.37;;
4553;SDS011;2289;48.316;15.174;2023-05-07T02:17:39;2.10;;;1.90;;
4553;SDS011;2289;48.316;15.174;2023-05-07T02:20:08;4.03;;;2.43;;
4553;SDS011;2289;48.316;15.174;2023-05-07T02:22:40;3.33;;;2.10;;
4553;SDS011;2289;48.316;15.174;2023-05-07T02:25:09;2.37;;;2.00;;
4553;SDS011;2289;48.316;15.174;2023-05-07T02:27:41;3.87;;;1.83;;
4553;SDS011;2289;48.316;15.174;2023-05-07T02:30:10;4.37;;;1.90;;
4553;SDS011;2289;48.316;15.174;2023-05-07T02:32:40;5.60;;;2.60;;
4553;SDS011;2289;48.316;15.174;2023-05-07T02:35:09;3.30;;;2.53;;
4553;SDS011;2289;48.316;15.174;2023-05-07T02:37:37;5.17;;;2.83;;
4553;SDS011;2289;48.316;15.174;2023-05-07T02:40:06;6.80;;;2.10;;
4553;SDS011;2289;48.316;15.174;2023-05-07T02:42:37;16.80;;;2.83;;
4553;SDS011;2289;48.316;15.174;2023-05-07T02:45:08;5.40;;;2.43;;
4553;SDS011;2289;48.316;15.174;2023-05-07T02:47:37;5.13;;;2.80;;
4553;SDS011;2289;48.316;15.174;2023-05-07T02:50:07;3.20;;;2.77;;
4553;SDS011;2289;48.316;15.174;2023-05-07T02:52:36;3.77;;;2.83;;
4553;SDS011;2289;48.316;15.174;2023-05-07T02:55:05;3.63;;;3.17;;
4553;SDS011;2289;48.316;15.174;2023-05-07T02:57:35;3.33;;;3.03;;
4553;SDS011;2289;48.316;15.174;2023-05-07T03:00:12;9.63;;;3.30;;
4553;SDS011;2289;48.316;15.174;2023-05-07T03:02:42;6.80;;;2.90;;
4553;SDS011;2289;48.316;15.174;2023-05-07T03:05:11;4.67;;;3.50;;
4553;SDS011;2289;48.316;15.174;2023-05-07T03:07:41;4.40;;;3.13;;
4553;SDS011;2289;48.316;15.174;2023-05-07T03:10:12;3.33;;;3.03;;
4553;SDS011;2289;48.316;15.174;2023-05-07T03:12:42;4.67;;;3.03;;
4553;SDS011;2289;48.316;15.174;2023-05-07T03:15:12;4.47;;;3.00;;
4553;SDS011;2289;48.316;15.174;2023-05-07T03:17:41;4.53;;;2.97;;
4553;SDS011;2289;48.316;15.174;2023-05-07T03:20:10;7.00;;;3.07;;
4553;SDS011;2289;48.316;15.174;2023-05-07T03:22:40;3.67;;;3.33;;
4553;SDS011;2289;48.316;15.174;2023-05-07T03:25:09;6.30;;;3.57;;
4553;SDS011;2289;48.316;15.174;2023-05-07T03:27:38;6.13;;;3.40;;
4553;SDS011;2289;48.316;15.174;2023-05-07T03:30:07;10.07;;;3.87;;
4553;SDS011;2289;48.316;15.174;2023-05-07T03:32:38;9.97;;;4.87;;
4553;SDS011;2289;48.316;15.174;2023-05-07T03:35:07;9.73;;;4.10;;
4553;SDS011;2289;48.316;15.174;2023-05-07T03:37:37;8.80;;;3.60;;
4553;SDS011;2289;48.316;15.174;2023-05-07T03:40:09;7.80;;;3.50;;
4553;SDS011;2289;48.316;15.174;2023-05-07T03:42:39;6.50;;;4.33;;
4553;SDS011;2289;48.316;15.174;2023-05-07T03:45:08;6.70;;;5.10;;
4553;SDS011;2289;48.316;15.174;2023-05-07T03:47:39;7.20;;;4.27;;
4553;SDS011;2289;48.316;15.174;2023-05-07T03:50:09;8.00;;;4.43;;
4553;SDS011;2289;48.316;15.174;2023-05-07T03:52:39;9.53;;;4.90;;
4553;SDS011;2289;48.316;15.174;2023-05-07T03:55:08;7.70;;;4.23;;
4553;SDS011;2289;48.316;15.174;2023-05-07T03:57:37;7.50;;;4.60;;
4553;SDS011;2289;48.316;15.174;2023-05-07T04:00:06;6.93;;;4.60;;
4553;SDS011;2289;48.316;15.174;2023-05-07T04:02:37;22.20;;;4.30;;
4553;SDS011;2289;48.316;15.174;2023-05-07T04:05:07;13.40;;;5.47;;
4553;SDS011;2289;48.316;15.174;2023-05-07T04:07:37;8.83;;;6.30;;
4553;SDS011;2289;48.316;15.174;2023-05-07T04:10:06;6.83;;;4.77;;
4553;SDS011;2289;48.316;15.174;2023-05-07T04:12:35;10.10;;;5.43;;
4553;SDS011;2289;48.316;15.174;2023-05-07T04:15:04;7.10;;;4.77;;
4553;SDS011;2289;48.316;15.174;2023-05-07T04:17:33;9.47;;;5.00;;
4553;SDS011;2289;48.316;15.174;2023-05-07T04:20:04;7.77;;;4.70;;
4553;SDS011;2289;48.316;15.174;2023-05-07T04:22:35;10.50;;;4.47;;
4553;SDS011;2289;48.316;15.174;2023-05-07T04:25:03;10.97;;;4.00;;
4553;SDS011;2289;48.316;15.174;2023-05-07T04:27:33;9.63;;;4.60;;
4553;SDS011;2289;48.316;15.174;2023-05-07T04:30:02;10.40;;;6.20;;
4553;SDS011;2289;48.316;15.174;2023-05-07T04:32:31;8.23;;;4.67;;
4553;SDS011;2289;48.316;15.174;2023-05-07T04:35:00;5.00;;;4.60;;
4553;SDS011;2289;48.316;15.174;2023-05-07T04:37:31;4.90;;;4.37;;
4553;SDS011;2289;48.316;15.174;2023-05-07T04:40:00;5.40;;;4.73;;
4553;SDS011;2289;48.316;15.174;2023-05-07T04:42:28;22.87;;;10.57;;
4553;SDS011;2289;48.316;15.174;2023-05-07T04:44:57;17.57;;;12.63;;
4553;SDS011;2289;48.316;15.174;2023-05-07T04:47:27;19.10;;;10.77;;
4553;SDS011;2289;48.316;15.174;2023-05-07T04:49:55;7.67;;;6.63;;
4553;SDS011;2289;48.316;15.174;2023-05-07T04:52:25;6.30;;;5.47;;
4553;SDS011;2289;48.316;15.174;2023-05-07T04:54:55;6.60;;;5.90;;
4553;SDS011;2289;48.316;15.174;2023-05-07T04:57:23;9.03;;;5.40;;
4553;SDS011;2289;48.316;15.174;2023-05-07T04:59:53;7.70;;;5.90;;
4553;SDS011;2289;48.316;15.174;2023-05-07T05:02:22;6.33;;;5.53;;
4553;SDS011;2289;48.316;15.174;2023-05-07T05:04:50;6.30;;;5.70;;
4553;SDS011;2289;48.316;15.174;2023-05-07T05:07:19;6.60;;;4.90;;
4553;SDS011;2289;48.316;15.174;2023-05-07T05:09:48;7.27;;;4.80;;
4553;SDS011;2289;48.316;15.174;2023-05-07T05:12:18;6.80;;;5.10;;
4553;SDS011;2289;48.316;15.174;2023-05-07T05:14:47;8.23;;;5.73;;
4553;SDS011;2289;48.316;15.174;2023-05-07T05:17:16;5.80;;;4.93;;
4553;SDS011;2289;48.316;15.174;2023-05-07T05:19:45;4.70;;;4.20;;
4553;SDS011;2289;48.316;15.174;2023-05-07T05:22:14;5.47;;;4.97;;
4553;SDS011;2289;48.316;15.174;2023-05-07T05:24:43;6.53;;;5.77;;
4553;SDS011;2289;48.316;15.174;2023-05-07T05:27:12;6.20;;;5.53;;
4553;SDS011;2289;48.316;15.174;2023-05-07T05:29:41;5.73;;;5.07;;
4553;SDS011;2289;48.316;15.174;2023-05-07T05:32:10;5.13;;;4.63;;
4553;SDS011;2289;48.316;15.174;2023-05-07T05:34:39;5.60;;;5.00;;
4553;SDS011;2289;48.316;15.174;2023-05-07T05:37:08;8.73;;;6.03;;
4553;SDS011;2289;48.316;15.174;2023-05-07T05:39:38;7.40;;;6.30;;
4553;SDS011;2289;48.316;15.174;2023-05-07T05:42:06;7.80;;;6.20;;
4553;SDS011;2289;48.316;15.174;2023-05-07T05:44:35;7.77;;;5.70;;
4553;SDS011;2289;48.316;15.174;2023-05-07T05:47:08;8.53;;;5.77;;
4553;SDS011;2289;48.316;15.174;2023-05-07T05:49:37;9.63;;;6.80;;
4553;SDS011;2289;48.316;15.174;2023-05-07T05:52:09;8.10;;;6.93;;
4553;SDS011;2289;48.316;15.174;2023-05-07T05:54:40;6.63;;;5.60;;
4553;SDS011;2289;48.316;15.174;2023-05-07T05:57:08;8.90;;;6.27;;
4553;SDS011;2289;48.316;15.174;2023-05-07T05:59:37;7.37;;;5.90;;
4553;SDS011;2289;48.316;15.174;2023-05-07T06:02:06;9.13;;;6.33;;
4553;SDS011;2289;48.316;15.174;2023-05-07T06:04:36;7.83;;;5.40;;
4553;SDS011;2289;48.316;15.174;2023-05-07T06:07:05;7.60;;;5.93;;
4553;SDS011;2289;48.316;15.174;2023-05-07T06:09:34;6.17;;;5.57;;
4553;SDS011;2289;48.316;15.174;2023-05-07T06:12:03;8.30;;;5.70;;
4553;SDS011;2289;48.316;15.174;2023-05-07T06:14:32;5.63;;;4.97;;
4553;SDS011;2289;48.316;15.174;2023-05-07T06:17:01;10.30;;;6.13;;
4553;SDS011;2289;48.316;15.174;2023-05-07T06:19:30;10.80;;;7.40;;
4553;SDS011;2289;48.316;15.174;2023-05-07T06:22:00;7.97;;;7.17;;
4553;SDS011;2289;48.316;15.174;2023-05-07T06:24:29;9.50;;;6.83;;
4553;SDS011;2289;48.316;15.174;2023-05-07T06:26:57;6.93;;;6.23;;
4553;SDS011;2289;48.316;15.174;2023-05-07T06:29:26;8.87;;;5.93;;
4553;SDS011;2289;48.316;15.174;2023-05-07T06:31:57;6.53;;;5.90;;
4553;SDS011;2289;48.316;15.174;2023-05-07T06:34:35;6.00;;;5.50;;
4553;SDS011;2289;48.316;15.174;2023-05-07T06:37:05;8.07;;;5.90;;
4553;SDS011;2289;48.316;15.174;2023-05-07T06:39:35;7.33;;;6.63;;
4553;SDS011;2289;48.316;15.174;2023-05-07T06:42:04;7.20;;;5.50;;
4553;SDS011;2289;48.316;15.174;2023-05-07T06:44:33;8.27;;;7.37;;
4553;SDS011;2289;48.316;15.174;2023-05-07T06:47:02;9.60;;;7.27;;
4553;SDS011;2289;48.316;15.174;2023-05-07T06:49:32;5.70;;;5.20;;
4553;SDS011;2289;48.316;15.174;2023-05-07T06:52:00;8.20;;;6.90;;
4553;SDS011;2289;48.316;15.174;2023-05-07T06:54:30;9.03;;;6.33;;
4553;SDS011;2289;48.316;15.174;2023-05-07T06:56:59;6.93;;;6.17;;
4553;SDS011;2289;48.316;15.174;2023-05-07T06:59:28;7.37;;;5.90;;
4553;SDS011;2289;48.316;15.174;2023-05-07T07:01:57;7.63;;;6.60;;
4553;SDS011;2289;48.316;15.174;2023-05-07T07:04:26;7.23;;;6.30;;
4553;SDS011;2289;48.316;15.174;2023-05-07T07:06:55;8.83;;;7.17;;
4553;SDS011;2289;48.316;15.174;2023-05-07T07:09:25;11.23;;;7.23;;
4553;SDS011;2289;48.316;15.174;2023-05-07T07:11:55;9.27;;;7.93;;
4553;SDS011;2289;48.316;15.174;2023-05-07T07:14:24;12.67;;;6.87;;
4553;SDS011;2289;48.316;15.174;2023-05-07T07:16:53;8.43;;;6.73;;
4553;SDS011;2289;48.316;15.174;2023-05-07T07:19:21;10.83;;;7.10;;
4553;SDS011;2289;48.316;15.174;2023-05-07T07:21:50;8.60;;;6.50;;
4553;SDS011;2289;48.316;15.174;2023-05-07T07:24:18;8.63;;;7.43;;
4553;SDS011;2289;48.316;15.174;2023-05-07T07:26:48;7.20;;;6.50;;
4553;SDS011;2289;48.316;15.174;2023-05-07T07:29:18;7.03;;;5.97;;
4553;SDS011;2289;48.316;15.174;2023-05-07T07:31:47;9.30;;;6.07;;
4553;SDS011;2289;48.316;15.174;2023-05-07T07:34:16;8.30;;;6.97;;
4553;SDS011;2289;48.316;15.174;2023-05-07T07:36:45;7.03;;;6.33;;
4553;SDS011;2289;48.316;15.174;2023-05-07T07:39:14;6.70;;;6.00;;
4553;SDS011;2289;48.316;15.174;2023-05-07T07:41:43;7.30;;;6.57;;
4553;SDS011;2289;48.316;15.174;2023-05-07T07:44:11;8.70;;;6.70;;
4553;SDS011;2289;48.316;15.174;2023-05-07T07:46:43;8.07;;;6.40;;
4553;SDS011;2289;48.316;15.174;2023-05-07T07:49:13;11.90;;;7.90;;
4553;SDS011;2289;48.316;15.174;2023-05-07T07:51:41;10.87;;;6.70;;
4553;SDS011;2289;48.316;15.174;2023-05-07T07:54:10;7.43;;;6.23;;
4553;SDS011;2289;48.316;15.174;2023-05-07T07:56:39;8.40;;;6.77;;
4553;SDS011;2289;48.316;15.174;2023-05-07T07:59:08;10.83;;;6.80;;
4553;SDS011;2289;48.316;15.174;2023-05-07T08:01:37;6.97;;;6.27;;
4553;SDS011;2289;48.316;15.174;2023-05-07T08:04:07;6.97;;;6.27;;
4553;SDS011;2289;48.316;15.174;2023-05-07T08:06:36;7.20;;;6.60;;
4553;SDS011;2289;48.316;15.174;2023-05-07T08:09:05;8.57;;;6.70;;
4553;SDS011;2289;48.316;15.174;2023-05-07T08:11:34;6.90;;;6.13;;
4553;SDS011;2289;48.316;15.174;2023-05-07T08:14:03;9.23;;;7.13;;
4553;SDS011;2289;48.316;15.174;2023-05-07T08:16:32;11.93;;;6.50;;
4553;SDS011;2289;48.316;15.174;2023-05-07T08:19:01;8.73;;;5.73;;
4553;SDS011;2289;48.316;15.174;2023-05-07T08:21:31;9.87;;;6.33;;
4553;SDS011;2289;48.316;15.174;2023-05-07T08:24:00;6.30;;;5.47;;
4553;SDS011;2289;48.316;15.174;2023-05-07T08:26:29;7.83;;;6.93;;
4553;SDS011;2289;48.316;15.174;2023-05-07T08:28:58;10.67;;;7.50;;
4553;SDS011;2289;48.316;15.174;2023-05-07T08:31:27;7.47;;;5.63;;
4553;SDS011;2289;48.316;15.174;2023-05-07T08:33:56;6.87;;;6.17;;
4553;SDS011;2289;48.316;15.174;2023-05-07T08:36:25;6.00;;;5.40;;
4553;SDS011;2289;48.316;15.174;2023-05-07T08:38:57;7.43;;;6.60;;
4553;SDS011;2289;48.316;15.174;2023-05-07T08:41:29;5.77;;;5.20;;
4553;SDS011;2289;48.316;15.174;2023-05-07T08:43:57;7.50;;;6.30;;
4553;SDS011;2289;48.316;15.174;2023-05-07T08:46:27;5.77;;;5.17;;
4553;SDS011;2289;48.316;15.174;2023-05-07T08:48:59;8.93;;;6.50;;
4553;SDS011;2289;48.316;15.174;2023-05-07T08:51:28;8.00;;;5.50;;
4553;SDS011;2289;48.316;15.174;2023-05-07T08:53:59;6.00;;;5.37;;
4553;SDS011;2289;48.316;15.174;2023-05-07T08:56:30;7.37;;;5.93;;
4553;SDS011;2289;48.316;15.174;2023-05-07T08:58:59;6.90;;;4.63;;
4553;SDS011;2289;48.316;15.174;2023-05-07T09:01:28;6.17;;;4.80;;
4553;SDS011;2289;48.316;15.174;2023-05-07T09:03:57;6.70;;;6.10;;
4553;SDS011;2289;48.316;15.174;2023-05-07T09:06:26;8.47;;;5.53;;
4553;SDS011;2289;48.316;15.174;2023-05-07T09:08:55;6.90;;;5.00;;
4553;SDS011;2289;48.316;15.174;2023-05-07T09:11:26;5.93;;;5.37;;
4553;SDS011;2289;48.316;15.174;2023-05-07T09:13:55;5.60;;;5.00;;
4553;SDS011;2289;48.316;15.174;2023-05-07T09:16:24;5.93;;;5.43;;
4553;SDS011;2289;48.316;15.174;2023-05-07T09:18:54;5.77;;;5.27;;
4553;SDS011;2289;48.316;15.174;2023-05-07T09:21:25;5.57;;;5.07;;
4553;SDS011;2289;48.316;15.174;2023-05-07T09:23:54;5.63;;;4.50;;
4553;SDS011;2289;48.316;15.174;2023-05-07T09:26:24;7.60;;;5.20;;
4553;SDS011;2289;48.316;15.174;2023-05-07T09:28:55;6.53;;;5.93;;
4553;SDS011;2289;48.316;15.174;2023-05-07T09:31:24;6.57;;;5.93;;
4553;SDS011;2289;48.316;15.174;2023-05-07T09:33:53;9.73;;;6.17;;
4553;SDS011;2289;48.316;15.174;2023-05-07T09:36:22;7.47;;;5.93;;
4553;SDS011;2289;48.316;15.174;2023-05-07T09:38:51;9.23;;;6.10;;
4553;SDS011;2289;48.316;15.174;2023-05-07T09:41:20;12.67;;;10.13;;
4553;SDS011;2289;48.316;15.174;2023-05-07T09:43:52;8.90;;;7.10;;
4553;SDS011;2289;48.316;15.174;2023-05-07T09:46:25;7.60;;;6.33;;
4553;SDS011;2289;48.316;15.174;2023-05-07T09:48:56;7.73;;;6.13;;
4553;SDS011;2289;48.316;15.174;2023-05-07T09:51:28;7.57;;;6.60;;
4553;SDS011;2289;48.316;15.174;2023-05-07T09:53:58;6.43;;;5.80;;
4553;SDS011;2289;48.316;15.174;2023-05-07T09:56:29;6.80;;;6.07;;
4553;SDS011;2289;48.316;15.174;2023-05-07T09:58:59;6.17;;;5.43;;
4553;SDS011;2289;48.316;15.174;2023-05-07T10:01:31;7.87;;;6.80;;
4553;SDS011;2289;48.316;15.174;2023-05-07T10:04:01;7.00;;;5.07;;
4553;SDS011;2289;48.316;15.174;2023-05-07T10:06:31;7.07;;;5.30;;
4553;SDS011;2289;48.316;15.174;2023-05-07T10:09:00;6.87;;;6.20;;
4553;SDS011;2289;48.316;15.174;2023-05-07T10:11:30;5.80;;;4.90;;
4553;SDS011;2289;48.316;15.174;2023-05-07T10:14:00;5.20;;;4.77;;
4553;SDS011;2289;48.316;15.174;2023-05-07T10:16:33;6.03;;;5.03;;
4553;SDS011;2289;48.316;15.174;2023-05-07T10:19:04;6.70;;;5.43;;
4553;SDS011;2289;48.316;15.174;2023-05-07T10:21:34;6.57;;;5.97;;
4553;SDS011;2289;48.316;15.174;2023-05-07T10:24:04;8.20;;;6.90;;
4553;SDS011;2289;48.316;15.174;2023-05-07T10:26:37;5.80;;;5.30;;
4553;SDS011;2289;48.316;15.174;2023-05-07T10:29:07;6.97;;;5.60;;
4553;SDS011;2289;48.316;15.174;2023-05-07T10:31:48;4.73;;;4.33;;
4553;SDS011;2289;48.316;15.174;2023-05-07T10:34:21;6.37;;;4.60;;
4553;SDS011;2289;48.316;15.174;2023-05-07T10:36:53;4.67;;;4.27;;
4553;SDS011;2289;48.316;15.174;2023-05-07T10:39:23;4.93;;;4.53;;
4553;SDS011;2289;48.316;15.174;2023-05-07T10:41:52;5.30;;;4.30;;
4553;SDS011;2289;48.316;15.174;2023-05-07T10:44:25;5.90;;;5.30;;
4553;SDS011;2289;48.316;15.174;2023-05-07T10:47:05;7.27;;;5.23;;
4553;SDS011;2289;48.316;15.174;2023-05-07T10:49:37;5.27;;;4.50;;
4553;SDS011;2289;48.316;15.174;2023-05-07T10:52:11;8.10;;;4.67;;
4553;SDS011;2289;48.316;15.174;2023-05-07T10:54:41;5.17;;;4.67;;
4553;SDS011;2289;48.316;15.174;2023-05-07T11:00:02;7.20;;;5.13;;
4553;SDS011;2289;48.316;15.174;2023-05-07T11:05:38;6.50;;;4.90;;
4553;SDS011;2289;48.316;15.174;2023-05-07T11:08:07;9.37;;;5.70;;
4553;SDS011;2289;48.316;15.174;2023-05-07T11:10:50;9.40;;;7.00;;
4553;SDS011;2289;48.316;15.174;2023-05-07T11:16:18;7.17;;;4.60;;
4553;SDS011;2289;48.316;15.174;2023-05-07T11:18:51;5.63;;;5.13;;
4553;SDS011;2289;48.316;15.174;2023-05-07T11:21:33;5.13;;;4.63;;
4553;SDS011;2289;48.316;15.174;2023-05-07T11:24:03;7.90;;;4.87;;
4553;SDS011;2289;48.316;15.174;2023-05-07T11:26:43;7.33;;;4.60;;
4553;SDS011;2289;48.316;15.174;2023-05-07T11:29:14;5.23;;;4.83;;
4553;SDS011;2289;48.316;15.174;2023-05-07T11:31:51;5.20;;;4.70;;
4553;SDS011;2289;48.316;15.174;2023-05-07T11:34:23;6.80;;;5.00;;
4553;SDS011;2289;48.316;15.174;2023-05-07T11:36:52;4.90;;;4.47;;
4553;SDS011;2289;48.316;15.174;2023-05-07T11:39:25;5.90;;;4.60;;
4553;SDS011;2289;48.316;15.174;2023-05-07T11:41:55;4.63;;;4.20;;
4553;SDS011;2289;48.316;15.174;2023-05-07T11:44:24;9.73;;;5.80;;
4553;SDS011;2289;48.316;15.174;2023-05-07T11:46:56;8.37;;;5.50;;
4553;SDS011;2289;48.316;15.174;2023-05-07T11:49:28;4.80;;;4.40;;
4553;SDS011;2289;48.316;15.174;2023-05-07T11:51:57;6.33;;;5.07;;
4553;SDS011;2289;48.316;15.174;2023-05-07T11:54:25;6.30;;;5.70;;
4553;SDS011;2289;48.316;15.174;2023-05-07T11:56:55;7.07;;;5.67;;
4553;SDS011;2289;48.316;15.174;2023-05-07T11:59:28;6.00;;;5.13;;
4553;SDS011;2289;48.316;15.174;2023-05-07T12:01:57;5.70;;;4.67;;
4553;SDS011;2289;48.316;15.174;2023-05-07T12:04:29;15.13;;;5.60;;
4553;SDS011;2289;48.316;15.174;2023-05-07T12:06:58;6.03;;;5.10;;
4553;SDS011;2289;48.316;15.174;2023-05-07T12:09:28;4.37;;;3.97;;
4553;SDS011;2289;48.316;15.174;2023-05-07T12:11:57;6.50;;;4.30;;
4553;SDS011;2289;48.316;15.174;2023-05-07T12:14:27;5.93;;;4.93;;
4553;SDS011;2289;48.316;15.174;2023-05-07T12:16:58;5.43;;;4.93;;
4553;SDS011;2289;48.316;15.174;2023-05-07T12:19:30;3.97;;;3.60;;
4553;SDS011;2289;48.316;15.174;2023-05-07T12:21:59;5.77;;;5.03;;
4553;SDS011;2289;48.316;15.174;2023-05-07T12:24:28;7.80;;;5.50;;
4553;SDS011;2289;48.316;15.174;2023-05-07T12:26:57;5.43;;;4.70;;
4553;SDS011;2289;48.316;15.174;2023-05-07T12:29:26;4.33;;;3.93;;
4553;SDS011;2289;48.316;15.174;2023-05-07T12:31:55;5.50;;;4.03;;
4553;SDS011;2289;48.316;15.174;2023-05-07T12:34:24;3.77;;;3.43;;
4553;SDS011;2289;48.316;15.174;2023-05-07T12:36:54;4.13;;;3.83;;
4553;SDS011;2289;48.316;15.174;2023-05-07T12:39:24;5.07;;;4.60;;
4553;SDS011;2289;48.316;15.174;2023-05-07T12:41:53;5.63;;;3.57;;
4553;SDS011;2289;48.316;15.174;2023-05-07T12:44:22;4.00;;;3.27;;
4553;SDS011;2289;48.316;15.174;2023-05-07T12:46:51;5.20;;;4.10;;
4553;SDS011;2289;48.316;15.174;2023-05-07T12:49:20;5.13;;;4.70;;
4553;SDS011;2289;48.316;15.174;2023-05-07T12:51:51;6.10;;;4.70;;
4553;SDS011;2289;48.316;15.174;2023-05-07T12:54:31;4.57;;;4.17;;
4553;SDS011;2289;48.316;15.174;2023-05-07T12:57:01;4.50;;;3.93;;
4553;SDS011;2289;48.316;15.174;2023-05-07T12:59:31;4.93;;;4.43;;
4553;SDS011;2289;48.316;15.174;2023-05-07T13:02:01;4.90;;;4.50;;
4553;SDS011;2289;48.316;15.174;2023-05-07T13:04:30;4.70;;;4.20;;
4553;SDS011;2289;48.316;15.174;2023-05-07T13:06:59;5.00;;;4.30;;
4553;SDS011;2289;48.316;15.174;2023-05-07T13:09:27;4.73;;;4.10;;
4553;SDS011;2289;48.316;15.174;2023-05-07T13:11:58;4.33;;;3.90;;
4553;SDS011;2289;48.316;15.174;2023-05-07T13:14:28;6.33;;;4.73;;
4553;SDS011;2289;48.316;15.174;2023-05-07T13:16:57;6.30;;;4.50;;
4553;SDS011;2289;48.316;15.174;2023-05-07T13:19:26;4.80;;;4.40;;
4553;SDS011;2289;48.316;15.174;2023-05-07T13:21:57;4.67;;;4.30;;
4553;SDS011;2289;48.316;15.174;2023-05-07T13:24:25;4.10;;;3.70;;
4553;SDS011;2289;48.316;15.174;2023-05-07T13:26:55;4.50;;;4.10;;
4553;SDS011;2289;48.316;15.174;2023-05-07T13:29:25;5.63;;;4.00;;
4553;SDS011;2289;48.316;15.174;2023-05-07T13:31:59;6.30;;;3.77;;
4553;SDS011;2289;48.316;15.174;2023-05-07T13:34:28;4.60;;;4.20;;
4553;SDS011;2289;48.316;15.174;2023-05-07T13:36:56;4.70;;;3.47;;
4553;SDS011;2289;48.316;15.174;2023-05-07T13:39:25;7.60;;;4.17;;
4553;SDS011;2289;48.316;15.174;2023-05-07T13:41:54;4.90;;;3.77;;
4553;SDS011;2289;48.316;15.174;2023-05-07T13:44:22;4.30;;;3.90;;
4553;SDS011;2289;48.316;15.174;2023-05-07T13:46:53;5.73;;;4.67;;
4553;SDS011;2289;48.316;15.174;2023-05-07T13:49:22;7.53;;;4.23;;
4553;SDS011;2289;48.316;15.174;2023-05-07T13:51:51;5.77;;;4.63;;
4553;SDS011;2289;48.316;15.174;2023-05-07T13:54:19;5.10;;;4.60;;
4553;SDS011;2289;48.316;15.174;2023-05-07T13:56:48;4.73;;;4.33;;
4553;SDS011;2289;48.316;15.174;2023-05-07T13:59:17;4.63;;;4.23;;
4553;SDS011;2289;48.316;15.174;2023-05-07T14:01:47;4.50;;;4.10;;
4553;SDS011;2289;48.316;15.174;2023-05-07T14:04:16;4.73;;;4.33;;
4553;SDS011;2289;48.316;15.174;2023-05-07T14:06:44;4.87;;;4.47;;
4553;SDS011;2289;48.316;15.174;2023-05-07T14:09:13;4.60;;;4.20;;
4553;SDS011;2289;48.316;15.174;2023-05-07T14:11:42;5.00;;;3.73;;
4553;SDS011;2289;48.316;15.174;2023-05-07T14:14:11;6.63;;;4.27;;
4553;SDS011;2289;48.316;15.174;2023-05-07T14:16:42;5.93;;;5.27;;
4553;SDS011;2289;48.316;15.174;2023-05-07T14:19:15;5.07;;;4.00;;
4553;SDS011;2289;48.316;15.174;2023-05-07T14:21:43;6.10;;;5.00;;
4553;SDS011;2289;48.316;15.174;2023-05-07T14:24:13;4.97;;;4.40;;
4553;SDS011;2289;48.316;15.174;2023-05-07T14:26:56;4.73;;;4.33;;
4553;SDS011;2289;48.316;15.174;2023-05-07T14:29:25;4.53;;;3.93;;
4553;SDS011;2289;48.316;15.174;2023-05-07T14:31:53;8.30;;;4.30;;
4553;SDS011;2289;48.316;15.174;2023-05-07T14:34:24;4.27;;;3.90;;
4553;SDS011;2289;48.316;15.174;2023-05-07T14:36:52;5.00;;;4.50;;
4553;SDS011;2289;48.316;15.174;2023-05-07T14:39:22;4.10;;;3.67;;
4553;SDS011;2289;48.316;15.174;2023-05-07T14:41:54;5.60;;;4.40;;
4553;SDS011;2289;48.316;15.174;2023-05-07T14:44:23;6.10;;;5.57;;
4553;SDS011;2289;48.316;15.174;2023-05-07T14:46:52;5.73;;;5.13;;
4553;SDS011;2289;48.316;15.174;2023-05-07T14:49:21;6.03;;;5.20;;
4553;SDS011;2289;48.316;15.174;2023-05-07T14:51:55;4.90;;;4.40;;
4553;SDS011;2289;48.316;15.174;2023-05-07T14:54:26;6.33;;;5.00;;
4553;SDS011;2289;48.316;15.174;2023-05-07T14:56:56;5.00;;;4.50;;
4553;SDS011;2289;48.316;15.174;2023-05-07T14:59:25;9.17;;;6.43;;
4553;SDS011;2289;48.316;15.174;2023-05-07T15:01:54;6.23;;;5.53;;
4553;SDS011;2289;48.316;15.174;2023-05-07T15:04:23;5.90;;;5.40;;
4553;SDS011;2289;48.316;15.174;2023-05-07T15:06:54;8.23;;;6.83;;
4553;SDS011;2289;48.316;15.174;2023-05-07T15:09:23;5.80;;;5.20;;
4553;SDS011;2289;48.316;15.174;2023-05-07T15:11:52;8.27;;;6.00;;
4553;SDS011;2289;48.316;15.174;2023-05-07T15:14:21;5.23;;;4.73;;
4553;SDS011;2289;48.316;15.174;2023-05-07T15:16:50;15.67;;;6.80;;
4553;SDS011;2289;48.316;15.174;2023-05-07T15:19:19;9.80;;;6.43;;
4553;SDS011;2289;48.316;15.174;2023-05-07T15:21:49;7.33;;;5.80;;
4553;SDS011;2289;48.316;15.174;2023-05-07T15:24:19;6.90;;;6.20;;